createdAt,value
2022-07-26T00:01:08.949Z,19.30
2022-07-26T00:05:11.851Z,19.00
2022-07-26T00:09:14.678Z,18.90
2022-07-26T00:13:20.898Z,19.00
2022-07-26T00:17:23.696Z,19.20
2022-07-26T00:21:26.506Z,19.30
2022-07-26T00:25:29.761Z,19.20
2022-07-26T00:29:34.035Z,19.30
2022-07-26T00:33:36.878Z,19.20
2022-07-26T00:37:40.163Z,19.20
2022-07-26T00:41:42.956Z,19.20
2022-07-26T00:45:47.281Z,19.30
2022-07-26T00:49:50.119Z,19.30
2022-07-26T00:53:52.934Z,19.30
2022-07-26T00:57:55.732Z,19.40
2022-07-26T01:01:59.940Z,19.40
2022-07-26T01:06:02.941Z,19.50
2022-07-26T01:10:08.641Z,19.40
2022-07-26T01:14:11.644Z,19.50
2022-07-26T01:18:16.250Z,19.50
2022-07-26T01:22:20.457Z,19.40
2022-07-26T01:26:23.282Z,19.50
2022-07-26T01:30:28.715Z,19.40
2022-07-26T01:34:31.848Z,19.30
2022-07-26T01:38:36.159Z,19.40
2022-07-26T01:42:41.045Z,19.30
2022-07-26T01:46:44.007Z,19.20
2022-07-26T01:50:46.883Z,19.20
2022-07-26T01:54:51.120Z,19.40
2022-07-26T01:58:54.088Z,19.50
2022-07-26T02:02:57.102Z,19.40
2022-07-26T02:07:00.125Z,19.40
2022-07-26T02:11:04.724Z,19.60
2022-07-26T02:15:09.131Z,19.50
2022-07-26T02:19:12.250Z,19.50
2022-07-26T02:23:15.554Z,19.30
2022-07-26T02:27:20.023Z,19.20
2022-07-26T02:31:23.079Z,19.20
2022-07-26T02:35:35.159Z,19.20
2022-07-26T02:39:38.025Z,19.50
2022-07-26T02:43:42.290Z,19.60
2022-07-26T02:47:49.578Z,19.70
2022-07-26T02:51:52.814Z,19.50
2022-07-26T02:55:55.811Z,19.40
2022-07-26T03:00:00.059Z,19.40
2022-07-26T03:04:03.596Z,19.40
2022-07-26T03:08:06.809Z,19.50
2022-07-26T03:12:09.618Z,19.60
2022-07-26T03:16:13.801Z,19.40
2022-07-26T03:20:16.932Z,19.60
2022-07-26T03:24:19.689Z,19.50
2022-07-26T03:28:24.318Z,19.30
2022-07-26T03:32:28.500Z,19.20
2022-07-26T03:36:31.236Z,19.10
2022-07-26T03:40:34.971Z,19.10
2022-07-26T03:44:37.975Z,19.00
2022-07-26T03:48:42.133Z,19.00
2022-07-26T03:52:44.894Z,19.00
2022-07-26T03:56:48.035Z,19.20
2022-07-26T04:00:50.768Z,19.30
2022-07-26T04:04:54.895Z,19.20
2022-07-26T04:08:58.929Z,19.20
2022-07-26T04:13:01.642Z,19.20
2022-07-26T04:17:04.500Z,19.10
2022-07-26T04:21:09.017Z,19.30
2022-07-26T04:25:11.983Z,19.30
2022-07-26T04:29:15.210Z,19.30
2022-07-26T04:33:18.323Z,19.20
2022-07-26T04:37:22.593Z,19.30
2022-07-26T04:41:25.340Z,19.30
2022-07-26T04:45:28.435Z,19.30
2022-07-26T04:49:31.276Z,19.30
2022-07-26T04:53:35.403Z,19.30
2022-07-26T04:57:38.467Z,19.40
2022-07-26T05:01:41.284Z,19.40
2022-07-26T05:05:44.132Z,19.50
2022-07-26T05:09:48.259Z,19.50
2022-07-26T05:13:51.455Z,19.30
2022-07-26T05:17:56.922Z,19.20
2022-07-26T05:21:59.904Z,19.00
2022-07-26T05:26:04.076Z,19.20
2022-07-26T05:30:07.795Z,19.20
2022-07-26T05:34:10.799Z,19.10
2022-07-26T05:38:13.843Z,19.10
2022-07-26T05:42:17.995Z,19.20
2022-07-26T05:46:20.767Z,19.30
2022-07-26T05:50:23.575Z,19.30
2022-07-26T05:54:26.380Z,19.40
2022-07-26T05:58:30.645Z,19.50
2022-07-26T06:02:33.543Z,19.50
2022-07-26T06:06:36.347Z,19.50
2022-07-26T06:10:39.199Z,19.70
2022-07-26T06:14:43.371Z,19.80
2022-07-26T06:18:46.220Z,19.80
2022-07-26T06:22:49.016Z,19.90
2022-07-26T06:26:56.759Z,19.80
2022-07-26T06:31:01.449Z,19.90
2022-07-26T06:35:04.673Z,19.90
2022-07-26T06:39:07.488Z,19.80
2022-07-26T06:43:10.210Z,19.80
2022-07-26T06:47:14.387Z,19.80
2022-07-26T06:51:17.643Z,19.60
2022-07-26T06:55:20.431Z,19.70
2022-07-26T06:59:23.182Z,19.80
2022-07-26T07:03:27.379Z,19.70
2022-07-26T07:07:30.155Z,19.40
2022-07-26T07:11:32.892Z,19.20
2022-07-26T07:15:35.687Z,19.10
2022-07-26T07:19:39.916Z,19.00
2022-07-26T07:23:42.672Z,19.10
2022-07-26T07:27:45.466Z,19.60
2022-07-26T07:31:49.714Z,20.00
2022-07-26T07:35:54.023Z,20.30
2022-07-26T07:39:56.869Z,20.30
2022-07-26T07:43:59.736Z,20.00
2022-07-26T07:48:02.547Z,19.60
2022-07-26T07:52:07.274Z,19.30
2022-07-26T07:56:10.063Z,19.10
2022-07-26T08:00:15.864Z,18.80
2022-07-26T08:04:18.898Z,18.60
2022-07-26T08:08:23.183Z,18.30
2022-07-26T08:12:26.032Z,18.40
2022-07-26T08:16:29.532Z,18.20
2022-07-26T08:20:32.357Z,18.20
2022-07-26T08:24:37.226Z,18.00
2022-07-26T08:28:48.328Z,18.10
2022-07-26T08:32:51.577Z,18.20
2022-07-26T08:37:15.938Z,18.70
2022-07-26T08:41:18.963Z,18.70
2022-07-26T08:45:23.628Z,18.60
2022-07-26T08:49:26.444Z,18.90
2022-07-26T08:53:30.249Z,19.10
2022-07-26T08:57:34.416Z,19.40
2022-07-26T09:01:51.706Z,20.10
2022-07-26T09:05:54.924Z,19.50
2022-07-26T09:09:59.497Z,19.70
2022-07-26T09:14:06.468Z,19.40
2022-07-26T09:18:26.730Z,19.40
2022-07-26T09:22:29.624Z,19.40
2022-07-26T09:26:32.451Z,19.50
2022-07-26T09:30:36.796Z,19.90
2022-07-26T09:34:51.851Z,20.00
2022-07-26T09:38:58.231Z,20.70
2022-07-26T09:43:02.881Z,21.60
2022-07-26T09:47:13.259Z,22.90
2022-07-26T09:51:16.079Z,22.90
2022-07-26T09:55:19.017Z,23.00
2022-07-26T09:59:23.294Z,23.00
2022-07-26T10:03:27.412Z,22.70
2022-07-26T10:07:30.478Z,23.90
2022-07-26T10:11:45.995Z,23.20
2022-07-26T10:15:50.401Z,23.70
2022-07-26T10:19:55.699Z,23.70
2022-07-26T10:23:59.839Z,23.80
2022-07-26T10:28:02.723Z,24.60
2022-07-26T10:32:20.336Z,24.90
2022-07-26T10:36:27.883Z,24.90
2022-07-26T10:40:31.243Z,24.90
2022-07-26T10:44:35.754Z,26.00
2022-07-26T10:48:57.109Z,27.20
2022-07-26T10:53:03.064Z,27.40
2022-07-26T10:57:05.971Z,27.80
2022-07-26T11:01:10.089Z,26.80
2022-07-26T11:05:16.359Z,26.30
2022-07-26T11:09:20.751Z,26.60
2022-07-26T11:13:24.600Z,25.70
2022-07-26T11:17:28.390Z,25.80
2022-07-26T11:21:31.339Z,25.80
2022-07-26T11:25:35.474Z,24.30
2022-07-26T11:29:41.815Z,24.60
2022-07-26T11:33:52.142Z,25.00
2022-07-26T11:38:05.117Z,24.20
2022-07-26T11:42:16.933Z,23.90
2022-07-26T11:46:20.912Z,23.30
2022-07-26T11:50:23.713Z,23.50
2022-07-26T11:54:30.124Z,22.90
2022-07-26T11:58:34.420Z,22.60
2022-07-26T12:02:37.256Z,22.20
2022-07-26T12:06:40.328Z,22.40
2022-07-26T12:10:43.103Z,22.20
2022-07-26T12:14:57.412Z,22.10
2022-07-26T12:19:00.316Z,22.10
2022-07-26T12:23:05.946Z,22.20
2022-07-26T12:27:10.978Z,22.20
2022-07-26T12:31:25.738Z,23.00
2022-07-26T12:35:32.238Z,27.70
2022-07-26T12:39:35.121Z,28.50
2022-07-26T12:43:40.821Z,25.10
2022-07-26T12:47:48.051Z,24.10
2022-07-26T12:51:50.833Z,23.70
2022-07-26T12:55:53.567Z,23.50
2022-07-26T12:59:56.852Z,23.70
2022-07-26T13:04:01.088Z,23.80
2022-07-26T13:08:03.954Z,24.70
2022-07-26T13:12:09.432Z,24.00
2022-07-26T13:16:12.614Z,23.60
2022-07-26T13:20:17.308Z,26.30
2022-07-26T13:24:20.213Z,28.20
2022-07-26T13:28:25.418Z,30.80
2022-07-26T13:32:28.206Z,28.10
2022-07-26T13:36:32.422Z,26.80
2022-07-26T13:40:35.259Z,27.20
2022-07-26T13:44:38.035Z,26.10
2022-07-26T13:48:52.771Z,25.40
2022-07-26T13:53:04.576Z,25.50
2022-07-26T13:57:07.883Z,24.50
2022-07-26T14:01:10.712Z,23.70
2022-07-26T14:05:13.571Z,23.30
2022-07-26T14:09:18.196Z,23.50
2022-07-26T14:13:20.951Z,23.40
2022-07-26T14:17:23.705Z,23.00
2022-07-26T14:21:26.882Z,23.20
2022-07-26T14:25:33.261Z,23.30
2022-07-26T14:29:37.421Z,23.80
2022-07-26T14:33:40.513Z,24.40
2022-07-26T14:37:45.602Z,23.80
2022-07-26T14:41:50.339Z,23.70
2022-07-26T14:45:53.143Z,23.50
2022-07-26T14:49:57.276Z,23.00
2022-07-26T14:54:01.010Z,23.10
2022-07-26T14:58:05.162Z,23.20
2022-07-26T15:02:08.025Z,24.00
2022-07-26T15:06:10.880Z,23.90
2022-07-26T15:10:14.903Z,24.10
2022-07-26T15:14:19.043Z,24.30
2022-07-26T15:18:21.895Z,24.30
2022-07-26T15:22:27.502Z,23.70
2022-07-26T15:26:30.271Z,24.20
2022-07-26T15:30:34.825Z,24.30
2022-07-26T15:34:37.587Z,24.90
2022-07-26T15:38:45.051Z,25.00
2022-07-26T15:42:50.427Z,25.20
2022-07-26T15:46:54.551Z,24.90
2022-07-26T15:50:58.568Z,24.80
2022-07-26T15:55:01.406Z,24.30
2022-07-26T15:59:07.027Z,24.20
2022-07-26T16:03:12.699Z,24.10
2022-07-26T16:07:16.539Z,24.20
2022-07-26T16:11:19.394Z,24.00
2022-07-26T16:15:22.235Z,23.90
2022-07-26T16:19:26.377Z,23.60
2022-07-26T16:23:29.141Z,23.40
2022-07-26T16:27:33.073Z,23.40
2022-07-26T16:31:37.209Z,23.40
2022-07-26T16:35:41.370Z,23.40
2022-07-26T16:39:44.199Z,23.20
2022-07-26T16:43:47.044Z,23.20
2022-07-26T16:47:50.113Z,23.00
2022-07-26T16:51:54.200Z,22.80
2022-07-26T16:55:56.967Z,22.70
2022-07-26T16:59:59.808Z,22.70
2022-07-26T17:04:02.550Z,22.80
2022-07-26T17:08:06.782Z,22.70
2022-07-26T17:12:09.714Z,22.70
2022-07-26T17:16:12.548Z,22.60
2022-07-26T17:20:19.591Z,22.50
2022-07-26T17:24:23.740Z,22.50
2022-07-26T17:28:26.568Z,22.60
2022-07-26T17:32:29.484Z,22.80
2022-07-26T17:36:32.484Z,22.80
2022-07-26T17:40:36.678Z,22.60
2022-07-26T17:44:41.273Z,22.60
2022-07-26T17:48:46.990Z,22.40
2022-07-26T17:52:50.762Z,22.30
2022-07-26T17:56:56.143Z,22.20
2022-07-26T18:00:58.935Z,22.10
2022-07-26T18:05:02.508Z,22.30
2022-07-26T18:09:06.681Z,22.00
2022-07-26T18:13:10.875Z,21.90
2022-07-26T18:17:13.613Z,21.80
2022-07-26T18:21:16.368Z,21.70
2022-07-26T18:25:19.182Z,21.60
2022-07-26T18:29:23.631Z,21.50
2022-07-26T18:33:26.600Z,21.40
2022-07-26T18:37:29.378Z,21.40
2022-07-26T18:41:32.779Z,21.40
2022-07-26T18:45:38.510Z,21.30
2022-07-26T18:49:41.299Z,21.20
2022-07-26T18:53:45.516Z,21.10
2022-07-26T18:57:48.274Z,21.10
2022-07-26T19:01:52.458Z,21.20
2022-07-26T19:05:55.251Z,21.10
2022-07-26T19:09:58.867Z,21.10
2022-07-26T19:14:01.757Z,21.10
2022-07-26T19:18:12.068Z,21.00
2022-07-26T19:22:14.869Z,20.90
2022-07-26T19:26:17.614Z,20.90
2022-07-26T19:30:20.467Z,20.90
2022-07-26T19:34:26.485Z,20.80
2022-07-26T19:38:29.283Z,20.70
2022-07-26T19:42:32.792Z,20.70
2022-07-26T19:46:35.598Z,20.70
2022-07-26T19:50:39.924Z,20.50
2022-07-26T19:54:42.651Z,20.50
2022-07-26T19:58:46.734Z,20.40
2022-07-26T20:02:49.558Z,20.40
2022-07-26T20:06:53.731Z,20.20
2022-07-26T20:10:56.509Z,20.20
2022-07-26T20:14:59.331Z,20.10
2022-07-26T20:19:02.207Z,20.00
2022-07-26T20:23:07.450Z,20.00
2022-07-26T20:27:10.228Z,19.90
2022-07-26T20:31:13.062Z,19.80
2022-07-26T20:35:16.134Z,19.70
2022-07-26T20:39:20.276Z,19.70
2022-07-26T20:43:23.195Z,19.60
2022-07-26T20:47:27.878Z,19.60
2022-07-26T20:51:30.635Z,19.50
2022-07-26T20:55:34.809Z,19.30
2022-07-26T20:59:38.163Z,18.80
2022-07-26T21:03:40.986Z,18.60
2022-07-26T21:07:54.980Z,18.70
2022-07-26T21:12:03.862Z,19.00
2022-07-26T21:16:09.835Z,19.10
2022-07-26T21:20:12.820Z,19.00
2022-07-26T21:24:15.647Z,18.90
2022-07-26T21:28:19.992Z,18.80
2022-07-26T21:32:31.292Z,18.80
2022-07-26T21:36:37.936Z,18.70
2022-07-26T21:40:40.718Z,19.00
2022-07-26T21:44:44.869Z,18.90
2022-07-26T21:48:48.435Z,19.00
2022-07-26T21:52:51.203Z,18.90
2022-07-26T21:56:54.123Z,18.70
2022-07-26T22:01:06.107Z,18.80
2022-07-26T22:05:24.288Z,18.90
2022-07-26T22:09:27.101Z,18.80
2022-07-26T22:13:29.873Z,18.80
2022-07-26T22:17:33.994Z,18.80
2022-07-26T22:21:36.730Z,18.70
2022-07-26T22:25:40.408Z,18.80
2022-07-26T22:29:43.180Z,18.70
2022-07-26T22:33:47.307Z,18.60
2022-07-26T22:37:50.208Z,18.40
2022-07-26T22:42:14.443Z,18.30
2022-07-26T22:46:15.792Z,18.40
2022-07-26T22:50:20.216Z,18.40
2022-07-26T22:54:23.066Z,18.30
2022-07-26T22:58:25.794Z,18.30
2022-07-26T23:02:28.539Z,18.40
2022-07-26T23:06:32.663Z,18.40
2022-07-26T23:10:35.479Z,18.20
2022-07-26T23:14:38.237Z,18.10
2022-07-26T23:18:41.016Z,18.30
2022-07-26T23:22:45.186Z,18.40
2022-07-26T23:26:47.940Z,18.40
2022-07-26T23:30:50.676Z,18.40
2022-07-26T23:34:53.472Z,18.40
2022-07-26T23:38:59.666Z,18.40
2022-07-26T23:43:02.440Z,18.40
2022-07-26T23:47:05.471Z,18.40
2022-07-26T23:51:08.268Z,18.30
2022-07-26T23:55:12.663Z,18.30
2022-07-26T23:59:15.833Z,18.30
